createdAt,value
2022-10-01T00:00:04.613Z,19.11
2022-10-01T00:00:49.382Z,19.36
2022-10-01T00:01:38.558Z,19.58
2022-10-01T00:02:12.124Z,19.70
2022-10-01T00:02:45.537Z,19.74
2022-10-01T00:03:19.925Z,19.66
2022-10-01T00:03:53.623Z,19.47
2022-10-01T00:04:27.995Z,19.22
2022-10-01T00:05:01.685Z,18.94
2022-10-01T00:05:34.884Z,18.67
2022-10-01T00:06:12.355Z,18.37
2022-10-01T00:06:45.641Z,18.07
2022-10-01T00:07:18.930Z,17.83
2022-10-01T00:07:52.253Z,17.70
2022-10-01T00:08:25.670Z,17.75
2022-10-01T00:08:59.134Z,17.92
2022-10-01T00:09:32.705Z,18.18
2022-10-01T00:10:07.048Z,18.48
2022-10-01T00:10:44.473Z,18.75
2022-10-01T00:11:26.401Z,19.00
2022-10-01T00:12:00.211Z,19.25
2022-10-01T00:12:35.091Z,19.43
2022-10-01T00:13:08.686Z,19.58
2022-10-01T00:13:46.543Z,19.66
2022-10-01T00:14:20.290Z,19.59
2022-10-01T00:14:53.463Z,19.41
2022-10-01T00:15:26.872Z,19.19
2022-10-01T00:16:00.710Z,18.93
2022-10-01T00:16:34.003Z,18.65
2022-10-01T00:17:07.341Z,18.37
2022-10-01T00:17:41.227Z,18.11
2022-10-01T00:18:14.896Z,17.86
2022-10-01T00:18:49.613Z,17.65
2022-10-01T00:19:23.103Z,17.58
2022-10-01T00:19:56.325Z,17.68
2022-10-01T00:20:29.741Z,17.88
2022-10-01T00:21:07.518Z,18.13
2022-10-01T00:21:40.921Z,18.43
2022-10-01T00:22:14.070Z,18.67
2022-10-01T00:22:47.671Z,18.87
2022-10-01T00:23:20.873Z,19.06
2022-10-01T00:23:59.814Z,19.22
2022-10-01T00:24:33.209Z,19.36
2022-10-01T00:25:07.345Z,19.41
2022-10-01T00:25:41.653Z,19.34
2022-10-01T00:26:21.213Z,19.16
2022-10-01T00:26:54.388Z,18.88
2022-10-01T00:27:28.039Z,18.64
2022-10-01T00:28:01.526Z,18.34
2022-10-01T00:28:34.831Z,18.08
2022-10-01T00:29:13.146Z,17.84
2022-10-01T00:29:46.290Z,17.60
2022-10-01T00:30:19.574Z,17.53
2022-10-01T00:30:52.843Z,17.62
2022-10-01T00:31:27.428Z,17.81
2022-10-01T00:32:00.952Z,18.07
2022-10-01T00:32:34.155Z,18.35
2022-10-01T00:33:07.454Z,18.62
2022-10-01T00:33:40.926Z,18.84
2022-10-01T00:34:16.109Z,19.03
2022-10-01T00:34:49.462Z,19.20
2022-10-01T00:35:23.604Z,19.33
2022-10-01T00:35:57.397Z,19.46
2022-10-01T00:36:32.117Z,19.55
2022-10-01T00:37:05.343Z,19.55
2022-10-01T00:37:39.243Z,19.44
2022-10-01T00:38:14.346Z,19.24
2022-10-01T00:38:48.653Z,18.98
2022-10-01T00:39:22.505Z,18.71
2022-10-01T00:39:55.791Z,18.43
2022-10-01T00:40:29.212Z,18.15
2022-10-01T00:41:03.900Z,17.91
2022-10-01T00:41:37.569Z,17.68
2022-10-01T00:42:27.022Z,17.58
2022-10-01T00:43:00.266Z,17.68
2022-10-01T00:43:37.053Z,17.87
2022-10-01T00:44:32.469Z,18.13
2022-10-01T00:45:05.981Z,18.52
2022-10-01T00:45:39.848Z,18.73
2022-10-01T00:46:28.147Z,18.92
2022-10-01T00:47:11.716Z,19.10
2022-10-01T00:48:00.705Z,19.19
2022-10-01T00:48:44.742Z,19.22
2022-10-01T00:49:24.524Z,19.26
2022-10-01T00:50:16.750Z,19.31
2022-10-01T00:50:52.123Z,19.39
2022-10-01T00:51:35.858Z,19.36
2022-10-01T00:52:14.129Z,19.18
2022-10-01T00:52:52.449Z,18.95
2022-10-01T00:53:26.746Z,18.67
2022-10-01T00:54:10.756Z,18.40
2022-10-01T00:55:05.013Z,18.06
2022-10-01T00:55:43.169Z,17.67
2022-10-01T00:56:16.380Z,17.47
2022-10-01T00:56:55.751Z,17.43
2022-10-01T00:57:29.905Z,17.57
2022-10-01T00:58:05.277Z,17.79
2022-10-01T00:58:39.824Z,18.07
2022-10-01T00:59:16.450Z,18.37
2022-10-01T00:59:52.360Z,18.68
2022-10-01T01:00:25.772Z,18.95
2022-10-01T01:00:59.379Z,19.18
2022-10-01T01:01:36.926Z,19.36
2022-10-01T01:02:11.536Z,19.54
2022-10-01T01:02:45.017Z,19.60
2022-10-01T01:03:18.681Z,19.53
2022-10-01T01:03:52.180Z,19.36
2022-10-01T01:04:25.533Z,19.13
2022-10-01T01:04:59.513Z,18.86
2022-10-01T01:05:33.080Z,18.58
2022-10-01T01:06:08.431Z,18.29
2022-10-01T01:06:41.599Z,18.01
2022-10-01T01:07:16.252Z,17.78
2022-10-01T01:07:53.021Z,17.65
2022-10-01T01:08:26.284Z,17.72
2022-10-01T01:08:59.692Z,17.92
2022-10-01T01:09:44.971Z,18.17
2022-10-01T01:10:28.387Z,18.56
2022-10-01T01:11:35.633Z,18.88
2022-10-01T01:12:21.308Z,19.27
2022-10-01T01:12:54.424Z,19.47
2022-10-01T01:13:37.662Z,19.59
2022-10-01T01:14:20.424Z,19.63
2022-10-01T01:15:14.434Z,19.47
2022-10-01T01:16:12.953Z,19.10
2022-10-01T01:17:03.586Z,18.63
2022-10-01T01:18:03.873Z,18.22
2022-10-01T01:18:48.173Z,17.80
2022-10-01T01:19:41.566Z,17.56
2022-10-01T01:20:26.783Z,17.58
2022-10-01T01:21:09.259Z,17.84
2022-10-01T01:21:45.956Z,18.16
2022-10-01T01:22:24.742Z,18.47
2022-10-01T01:23:08.874Z,18.75
2022-10-01T01:24:04.198Z,19.00
2022-10-01T01:24:49.016Z,19.24
2022-10-01T01:25:38.738Z,19.40
2022-10-01T01:26:19.275Z,19.54
2022-10-01T01:27:10.851Z,19.50
2022-10-01T01:27:48.921Z,19.24
2022-10-01T01:28:31.886Z,18.98
2022-10-01T01:29:28.652Z,18.66
2022-10-01T01:30:11.948Z,18.18
2022-10-01T01:30:49.685Z,17.88
2022-10-01T01:31:30.698Z,17.65
2022-10-01T01:32:14.853Z,17.59
2022-10-01T01:32:59.527Z,17.76
2022-10-01T01:33:37.522Z,18.04
2022-10-01T01:34:14.446Z,18.30
2022-10-01T01:34:50.609Z,18.56
2022-10-01T01:35:42.500Z,18.76
2022-10-01T01:36:19.695Z,18.96
2022-10-01T01:36:59.902Z,19.04
2022-10-01T01:37:40.483Z,19.06
2022-10-01T01:38:19.133Z,19.01
2022-10-01T01:38:58.840Z,18.97
2022-10-01T01:39:35.176Z,19.00
2022-10-01T01:40:12.524Z,19.09
2022-10-01T01:40:51.871Z,19.21
2022-10-01T01:41:29.606Z,19.32
2022-10-01T01:42:09.775Z,19.42
2022-10-01T01:42:45.071Z,19.42
2022-10-01T01:43:24.573Z,19.30
2022-10-01T01:44:02.458Z,19.07
2022-10-01T01:44:40.103Z,18.81
2022-10-01T01:45:20.394Z,18.52
2022-10-01T01:45:56.855Z,18.20
2022-10-01T01:46:34.402Z,17.93
2022-10-01T01:47:10.836Z,17.70
2022-10-01T01:47:46.034Z,17.60
2022-10-01T01:48:19.279Z,17.66
2022-10-01T01:48:53.601Z,17.82
2022-10-01T01:49:27.075Z,18.03
2022-10-01T01:50:06.360Z,18.26
2022-10-01T01:51:08.679Z,18.53
2022-10-01T01:51:53.416Z,18.80
2022-10-01T01:52:26.762Z,18.98
2022-10-01T01:53:00.289Z,19.09
2022-10-01T01:53:34.808Z,19.19
2022-10-01T01:54:08.909Z,19.25
2022-10-01T01:54:50.002Z,19.29
2022-10-01T01:55:25.596Z,19.23
2022-10-01T01:56:00.596Z,19.07
2022-10-01T01:56:34.648Z,18.85
2022-10-01T01:57:09.140Z,18.61
2022-10-01T01:57:44.548Z,18.33
2022-10-01T01:58:19.127Z,18.06
2022-10-01T01:58:54.221Z,17.82
2022-10-01T01:59:28.101Z,17.59
2022-10-01T02:00:02.692Z,17.45
2022-10-01T02:00:36.895Z,17.41
2022-10-01T02:01:34.781Z,17.45
2022-10-01T02:02:13.725Z,17.58
2022-10-01T02:02:52.121Z,17.73
2022-10-01T02:03:29.539Z,17.87
2022-10-01T02:04:07.133Z,18.02
2022-10-01T02:04:57.825Z,18.15
2022-10-01T02:05:55.309Z,18.33
2022-10-01T02:06:48.808Z,18.47
2022-10-01T02:07:37.649Z,18.55
2022-10-01T02:08:41.617Z,18.62
2022-10-01T02:09:48.983Z,18.67
2022-10-01T02:10:34.542Z,18.71
2022-10-01T02:11:22.039Z,18.75
2022-10-01T02:12:09.671Z,18.79
2022-10-01T02:13:01.887Z,18.82
2022-10-01T02:13:50.475Z,18.80
2022-10-01T02:14:43.899Z,18.75
2022-10-01T02:15:35.569Z,18.67
2022-10-01T02:16:27.894Z,18.57
2022-10-01T02:17:11.452Z,18.48
2022-10-01T02:17:54.056Z,18.42
2022-10-01T02:18:36.247Z,18.36
2022-10-01T02:19:28.270Z,18.30
2022-10-01T02:20:14.365Z,18.24
2022-10-01T02:21:04.664Z,18.21
2022-10-01T02:21:42.475Z,18.19
2022-10-01T02:22:23.960Z,18.16
2022-10-01T02:23:10.359Z,18.15
2022-10-01T02:23:59.845Z,18.12
2022-10-01T02:24:41.734Z,18.09
2022-10-01T02:25:19.504Z,18.06
2022-10-01T02:25:58.705Z,18.05
2022-10-01T02:26:35.475Z,18.03
2022-10-01T02:27:30.715Z,18.02
2022-10-01T02:28:33.180Z,17.98
2022-10-01T02:29:10.210Z,17.95
2022-10-01T02:29:45.627Z,17.95
2022-10-01T02:30:19.460Z,17.95
2022-10-01T02:30:56.230Z,17.95
2022-10-01T02:31:32.689Z,17.95
2022-10-01T02:32:07.279Z,17.94
2022-10-01T02:32:44.877Z,17.95
2022-10-01T02:33:24.753Z,17.95
2022-10-01T02:34:00.345Z,17.94
2022-10-01T02:34:34.290Z,17.91
2022-10-01T02:35:11.147Z,17.88
2022-10-01T02:35:46.844Z,17.86
2022-10-01T02:36:23.211Z,17.82
2022-10-01T02:36:59.706Z,17.78
2022-10-01T02:37:34.711Z,17.75
2022-10-01T02:38:11.115Z,17.71
2022-10-01T02:38:46.742Z,17.67
2022-10-01T02:39:23.307Z,17.64
2022-10-01T02:39:58.921Z,17.62
2022-10-01T02:40:36.733Z,17.60
2022-10-01T02:41:12.952Z,17.59
2022-10-01T02:41:50.583Z,17.57
2022-10-01T02:42:27.837Z,17.55
2022-10-01T02:43:12.427Z,17.54
2022-10-01T02:43:57.483Z,17.54
2022-10-01T02:44:40.478Z,17.53
2022-10-01T02:45:18.484Z,17.52
2022-10-01T02:45:58.938Z,17.52
2022-10-01T02:47:10.963Z,17.51
2022-10-01T02:47:48.112Z,17.45
2022-10-01T02:48:21.743Z,17.40
2022-10-01T02:48:56.186Z,17.38
2022-10-01T02:49:31.035Z,17.37
2022-10-01T02:50:06.752Z,17.35
2022-10-01T02:50:53.267Z,17.33
2022-10-01T02:51:53.585Z,17.29
2022-10-01T02:52:29.702Z,17.25
2022-10-01T02:53:10.272Z,17.24
2022-10-01T02:53:53.379Z,17.21
2022-10-01T02:54:52.459Z,17.19
2022-10-01T02:55:31.127Z,17.14
2022-10-01T02:56:06.101Z,17.14
2022-10-01T02:56:59.658Z,17.14
2022-10-01T02:57:33.323Z,17.15
2022-10-01T02:58:08.049Z,17.17
2022-10-01T02:58:42.253Z,17.19
2022-10-01T02:59:15.382Z,17.20
2022-10-01T02:59:49.216Z,17.22
2022-10-01T03:00:23.096Z,17.22
2022-10-01T03:00:56.393Z,17.23
2022-10-01T03:01:30.137Z,17.24
2022-10-01T03:02:04.148Z,17.26
2022-10-01T03:02:37.795Z,17.27
2022-10-01T03:03:11.197Z,17.28
2022-10-01T03:03:44.451Z,17.30
2022-10-01T03:04:19.462Z,17.30
2022-10-01T03:04:52.612Z,17.31
2022-10-01T03:05:26.056Z,17.32
2022-10-01T03:05:59.303Z,17.34
2022-10-01T03:06:35.349Z,17.35
2022-10-01T03:07:08.744Z,17.38
2022-10-01T03:07:42.270Z,17.39
2022-10-01T03:08:15.520Z,17.39
2022-10-01T03:08:48.863Z,17.38
2022-10-01T03:09:22.082Z,17.37
2022-10-01T03:09:55.316Z,17.35
2022-10-01T03:10:28.846Z,17.34
2022-10-01T03:11:02.389Z,17.34
2022-10-01T03:11:36.048Z,17.33
2022-10-01T03:12:10.865Z,17.35
2022-10-01T03:12:48.248Z,17.37
2022-10-01T03:13:23.743Z,17.40
2022-10-01T03:13:57.425Z,17.42
2022-10-01T03:14:32.567Z,17.43
2022-10-01T03:15:07.063Z,17.45
2022-10-01T03:15:40.220Z,17.45
2022-10-01T03:16:13.672Z,17.45
2022-10-01T03:16:46.789Z,17.42
2022-10-01T03:17:20.629Z,17.39
2022-10-01T03:17:54.208Z,17.36
2022-10-01T03:18:27.440Z,17.31
2022-10-01T03:19:00.588Z,17.28
2022-10-01T03:19:33.955Z,17.24
2022-10-01T03:20:07.897Z,17.22
2022-10-01T03:20:41.003Z,17.20
2022-10-01T03:21:14.356Z,17.18
2022-10-01T03:21:48.126Z,17.16
2022-10-01T03:22:25.536Z,17.16
2022-10-01T03:22:58.781Z,17.14
2022-10-01T03:23:32.083Z,17.13
2022-10-01T03:24:05.337Z,17.10
2022-10-01T03:24:38.817Z,17.07
2022-10-01T03:25:11.965Z,17.06
2022-10-01T03:25:45.135Z,17.04
2022-10-01T03:26:18.348Z,17.02
2022-10-01T03:26:51.670Z,17.01
2022-10-01T03:27:24.976Z,16.99
2022-10-01T03:27:59.371Z,16.96
2022-10-01T03:28:32.540Z,16.93
2022-10-01T03:29:06.671Z,16.90
2022-10-01T03:29:39.757Z,16.87
2022-10-01T03:30:13.685Z,16.84
2022-10-01T03:30:46.934Z,16.80
2022-10-01T03:31:20.232Z,16.79
2022-10-01T03:31:54.300Z,16.77
2022-10-01T03:32:27.624Z,16.75
2022-10-01T03:33:01.086Z,16.73
2022-10-01T03:33:34.382Z,16.73
2022-10-01T03:34:07.534Z,16.72
2022-10-01T03:34:41.312Z,16.72
2022-10-01T03:35:14.571Z,16.72
2022-10-01T03:35:47.960Z,16.74
2022-10-01T03:36:21.208Z,16.75
2022-10-01T03:36:54.430Z,16.78
2022-10-01T03:37:27.599Z,16.81
2022-10-01T03:38:02.990Z,16.84
2022-10-01T03:38:36.048Z,16.89
2022-10-01T03:39:09.476Z,16.94
2022-10-01T03:39:43.035Z,16.98
2022-10-01T03:40:16.218Z,17.01
2022-10-01T03:40:49.891Z,17.03
2022-10-01T03:41:23.122Z,17.04
2022-10-01T03:41:56.596Z,17.03
2022-10-01T03:42:29.877Z,17.03
2022-10-01T03:43:02.982Z,17.01
2022-10-01T03:43:36.266Z,16.99
2022-10-01T03:44:09.518Z,16.97
2022-10-01T03:44:43.953Z,16.95
2022-10-01T03:45:17.174Z,16.93
2022-10-01T03:45:50.142Z,16.91
2022-10-01T03:46:23.480Z,16.95
2022-10-01T03:46:56.616Z,17.06
2022-10-01T03:47:29.994Z,17.27
2022-10-01T03:48:03.195Z,17.45
2022-10-01T03:48:36.207Z,17.58
2022-10-01T03:49:09.618Z,17.62
2022-10-01T03:49:42.660Z,17.62
2022-10-01T03:50:15.889Z,17.58
2022-10-01T03:51:00.002Z,17.53
2022-10-01T03:51:33.918Z,17.45
2022-10-01T03:52:07.282Z,17.39
2022-10-01T03:52:41.954Z,17.33
2022-10-01T03:53:15.282Z,17.27
2022-10-01T03:53:48.622Z,17.20
2022-10-01T03:54:22.024Z,17.15
2022-10-01T03:54:55.130Z,17.09
2022-10-01T03:55:28.651Z,17.04
2022-10-01T03:56:02.057Z,17.02
2022-10-01T03:56:36.239Z,17.05
2022-10-01T03:57:09.693Z,17.08
2022-10-01T03:57:42.778Z,17.13
2022-10-01T03:58:16.946Z,17.18
2022-10-01T03:58:50.523Z,17.22
2022-10-01T03:59:23.766Z,17.22
2022-10-01T03:59:56.957Z,17.22
2022-10-01T04:00:30.175Z,17.21
2022-10-01T04:01:03.486Z,17.18
2022-10-01T04:01:37.579Z,17.18
2022-10-01T04:02:11.396Z,17.18
2022-10-01T04:02:45.332Z,17.16
2022-10-01T04:03:19.107Z,17.14
2022-10-01T04:03:53.148Z,17.11
2022-10-01T04:04:26.231Z,17.06
2022-10-01T04:04:59.467Z,17.00
2022-10-01T04:05:32.810Z,16.96
2022-10-01T04:06:06.290Z,16.94
2022-10-01T04:06:39.517Z,16.93
2022-10-01T04:07:12.753Z,16.94
2022-10-01T04:07:46.559Z,16.96
2022-10-01T04:08:24.050Z,16.98
2022-10-01T04:08:58.134Z,17.02
2022-10-01T04:09:31.451Z,17.06
2022-10-01T04:10:04.937Z,17.10
2022-10-01T04:10:38.833Z,17.13
2022-10-01T04:11:12.174Z,17.16
2022-10-01T04:11:45.562Z,17.19
2022-10-01T04:12:19.186Z,17.21
2022-10-01T04:12:54.150Z,17.24
2022-10-01T04:13:28.282Z,17.25
2022-10-01T04:14:01.677Z,17.26
2022-10-01T04:14:34.824Z,17.28
2022-10-01T04:15:08.553Z,17.30
2022-10-01T04:15:42.029Z,17.34
2022-10-01T04:16:16.442Z,17.37
2022-10-01T04:16:52.784Z,17.39
2022-10-01T04:17:25.907Z,17.41
2022-10-01T04:18:00.066Z,17.42
2022-10-01T04:18:34.479Z,17.42
2022-10-01T04:19:07.653Z,17.41
2022-10-01T04:19:40.878Z,17.40
2022-10-01T04:20:14.452Z,17.40
2022-10-01T04:20:48.516Z,17.42
2022-10-01T04:21:21.722Z,17.43
2022-10-01T04:21:54.876Z,17.45
2022-10-01T04:22:28.068Z,17.46
2022-10-01T04:23:02.126Z,17.47
2022-10-01T04:23:35.530Z,17.49
2022-10-01T04:24:08.684Z,17.50
2022-10-01T04:24:41.924Z,17.52
2022-10-01T04:25:15.367Z,17.54
2022-10-01T04:25:49.247Z,17.58
2022-10-01T04:26:22.580Z,17.62
2022-10-01T04:26:55.863Z,17.67
2022-10-01T04:27:29.341Z,17.70
2022-10-01T04:28:06.387Z,17.74
2022-10-01T04:28:39.830Z,17.76
2022-10-01T04:29:12.981Z,17.78
2022-10-01T04:29:46.177Z,17.78
2022-10-01T04:30:19.405Z,17.77
2022-10-01T04:31:12.534Z,17.75
2022-10-01T04:31:46.012Z,17.70
2022-10-01T04:32:22.556Z,17.69
2022-10-01T04:32:55.779Z,17.70
2022-10-01T04:33:28.821Z,17.71
2022-10-01T04:34:02.164Z,17.74
2022-10-01T04:34:53.602Z,17.76
2022-10-01T04:35:27.247Z,17.78
2022-10-01T04:36:00.482Z,17.82
2022-10-01T04:36:33.851Z,17.87
2022-10-01T04:37:07.117Z,17.91
2022-10-01T04:37:40.369Z,17.96
2022-10-01T04:38:16.796Z,17.99
2022-10-01T04:38:59.279Z,18.02
2022-10-01T04:39:35.249Z,18.00
2022-10-01T04:40:10.959Z,17.99
2022-10-01T04:40:44.131Z,17.96
2022-10-01T04:41:17.368Z,17.95
2022-10-01T04:41:50.738Z,17.93
2022-10-01T04:42:23.909Z,17.91
2022-10-01T04:42:57.672Z,17.88
2022-10-01T04:43:31.188Z,17.85
2022-10-01T04:44:04.799Z,17.81
2022-10-01T04:44:38.163Z,17.78
2022-10-01T04:45:12.143Z,17.75
2022-10-01T04:45:45.400Z,17.71
2022-10-01T04:46:18.803Z,17.69
2022-10-01T04:46:51.995Z,17.65
2022-10-01T04:47:25.287Z,17.63
2022-10-01T04:47:58.874Z,17.60
2022-10-01T04:48:31.898Z,17.56
2022-10-01T04:49:05.362Z,17.53
2022-10-01T04:49:39.485Z,17.49
2022-10-01T04:50:12.966Z,17.45
2022-10-01T04:50:46.101Z,17.42
2022-10-01T04:51:19.306Z,17.40
2022-10-01T04:51:52.513Z,17.37
2022-10-01T04:52:25.831Z,17.34
2022-10-01T04:52:59.035Z,17.32
2022-10-01T04:53:32.685Z,17.29
2022-10-01T04:54:05.867Z,17.26
2022-10-01T04:54:39.046Z,17.23
2022-10-01T04:55:12.369Z,17.19
2022-10-01T04:55:46.602Z,17.15
2022-10-01T04:56:19.798Z,17.12
2022-10-01T04:56:53.225Z,17.08
2022-10-01T04:57:26.424Z,17.04
2022-10-01T04:57:59.660Z,17.03
2022-10-01T04:58:33.396Z,17.11
2022-10-01T04:59:06.571Z,17.27
2022-10-01T04:59:39.588Z,17.50
2022-10-01T05:00:19.339Z,17.74
2022-10-01T05:00:52.526Z,17.94
2022-10-01T05:01:25.708Z,18.04
2022-10-01T05:01:59.079Z,18.06
2022-10-01T05:02:34.677Z,18.04
2022-10-01T05:03:08.085Z,17.98
2022-10-01T05:03:41.530Z,17.92
2022-10-01T05:04:14.992Z,17.88
2022-10-01T05:04:48.389Z,17.83
2022-10-01T05:05:24.789Z,17.78
2022-10-01T05:05:58.055Z,17.74
2022-10-01T05:06:31.514Z,17.70
2022-10-01T05:07:04.810Z,17.68
2022-10-01T05:07:40.195Z,17.64
2022-10-01T05:08:13.441Z,17.61
2022-10-01T05:08:47.990Z,17.57
2022-10-01T05:09:21.249Z,17.54
2022-10-01T05:09:54.324Z,17.50
2022-10-01T05:10:27.852Z,17.46
2022-10-01T05:11:00.976Z,17.42
2022-10-01T05:11:35.141Z,17.39
2022-10-01T05:12:08.634Z,17.37
2022-10-01T05:12:42.307Z,17.38
2022-10-01T05:13:15.465Z,17.40
2022-10-01T05:13:48.756Z,17.43
2022-10-01T05:14:22.291Z,17.46
2022-10-01T05:14:56.971Z,17.48
2022-10-01T05:15:30.629Z,17.49
2022-10-01T05:16:03.974Z,17.49
2022-10-01T05:16:37.975Z,17.49
2022-10-01T05:17:11.280Z,17.49
2022-10-01T05:17:45.008Z,17.48
2022-10-01T05:18:18.156Z,17.46
2022-10-01T05:18:51.447Z,17.46
2022-10-01T05:19:27.950Z,17.45
2022-10-01T05:20:02.414Z,17.45
2022-10-01T05:20:35.587Z,17.44
2022-10-01T05:21:10.360Z,17.45
2022-10-01T05:21:44.187Z,17.45
2022-10-01T05:22:17.334Z,17.45
2022-10-01T05:22:51.071Z,17.45
2022-10-01T05:23:24.279Z,17.44
2022-10-01T05:23:57.477Z,17.45
2022-10-01T05:24:30.700Z,17.46
2022-10-01T05:25:04.407Z,17.46
2022-10-01T05:25:37.796Z,17.46
2022-10-01T05:26:11.141Z,17.46
2022-10-01T05:26:44.437Z,17.45
2022-10-01T05:27:17.945Z,17.43
2022-10-01T05:27:51.381Z,17.40
2022-10-01T05:28:24.784Z,17.37
2022-10-01T05:29:00.901Z,17.34
2022-10-01T05:29:33.952Z,17.30
2022-10-01T05:30:09.328Z,17.29
2022-10-01T05:30:43.422Z,17.27
2022-10-01T05:31:16.768Z,17.25
2022-10-01T05:31:50.555Z,17.22
2022-10-01T05:32:23.938Z,17.18
2022-10-01T05:32:59.231Z,17.16
2022-10-01T05:33:34.427Z,17.13
2022-10-01T05:34:07.604Z,17.12
2022-10-01T05:34:40.874Z,17.11
2022-10-01T05:35:14.156Z,17.11
2022-10-01T05:35:47.729Z,17.10
2022-10-01T05:36:20.926Z,17.10
2022-10-01T05:36:55.296Z,17.08
2022-10-01T05:37:28.499Z,17.06
2022-10-01T05:38:03.222Z,17.04
2022-10-01T05:38:37.631Z,17.02
2022-10-01T05:39:10.964Z,17.00
2022-10-01T05:39:44.348Z,16.98
2022-10-01T05:40:18.398Z,16.97
2022-10-01T05:40:51.853Z,17.02
2022-10-01T05:41:24.970Z,17.14
2022-10-01T05:42:03.933Z,17.29
2022-10-01T05:42:39.803Z,17.48
2022-10-01T05:43:13.934Z,17.63
2022-10-01T05:43:50.252Z,17.80
2022-10-01T05:44:24.394Z,17.99
2022-10-01T05:44:57.804Z,18.16
2022-10-01T05:45:32.583Z,18.32
2022-10-01T05:46:06.430Z,18.48
2022-10-01T05:46:40.058Z,18.59
2022-10-01T05:47:14.808Z,18.69
2022-10-01T05:47:49.564Z,18.75
2022-10-01T05:48:22.911Z,18.82
2022-10-01T05:48:56.425Z,18.87
2022-10-01T05:49:29.957Z,18.91
2022-10-01T05:50:03.733Z,18.95
2022-10-01T05:50:40.548Z,18.99
2022-10-01T05:51:16.794Z,19.06
2022-10-01T05:51:50.333Z,19.12
2022-10-01T05:52:23.794Z,19.18
2022-10-01T05:52:57.764Z,19.25
2022-10-01T05:53:31.387Z,19.32
2022-10-01T05:54:04.770Z,19.40
2022-10-01T05:54:38.603Z,19.47
2022-10-01T05:55:11.789Z,19.54
2022-10-01T05:55:45.279Z,19.61
2022-10-01T05:56:19.200Z,19.67
2022-10-01T05:56:53.843Z,19.72
2022-10-01T05:57:27.169Z,19.75
2022-10-01T05:58:10.878Z,19.73
2022-10-01T05:58:44.337Z,19.55
2022-10-01T05:59:17.906Z,19.35
2022-10-01T05:59:51.249Z,19.11
2022-10-01T06:00:28.450Z,18.85
2022-10-01T06:01:02.135Z,18.57
2022-10-01T06:01:35.999Z,18.30
2022-10-01T06:02:10.430Z,18.12
2022-10-01T06:02:44.351Z,18.07
2022-10-01T06:03:18.028Z,18.14
2022-10-01T06:03:54.991Z,18.27
2022-10-01T06:04:28.431Z,18.45
2022-10-01T06:05:02.798Z,18.60
2022-10-01T06:05:37.025Z,18.72
2022-10-01T06:06:11.125Z,18.80
2022-10-01T06:06:45.113Z,18.87
2022-10-01T06:07:18.640Z,18.93
2022-10-01T06:07:52.699Z,18.99
2022-10-01T06:08:29.080Z,19.05
2022-10-01T06:09:02.639Z,19.12
2022-10-01T06:09:36.089Z,19.16
2022-10-01T06:10:09.668Z,19.21
2022-10-01T06:10:43.096Z,19.21
2022-10-01T06:11:17.467Z,19.20
2022-10-01T06:11:50.874Z,19.19
2022-10-01T06:12:24.477Z,19.17
2022-10-01T06:13:02.171Z,19.15
2022-10-01T06:13:36.524Z,19.14
2022-10-01T06:14:09.841Z,19.14
2022-10-01T06:14:43.142Z,19.14
2022-10-01T06:15:18.096Z,19.16
2022-10-01T06:15:53.201Z,19.16
2022-10-01T06:16:26.302Z,19.17
2022-10-01T06:16:59.613Z,19.19
2022-10-01T06:17:33.531Z,19.22
2022-10-01T06:18:09.012Z,19.24
2022-10-01T06:18:42.820Z,19.26
2022-10-01T06:19:17.750Z,19.30
2022-10-01T06:19:51.832Z,19.34
2022-10-01T06:20:25.059Z,19.35
2022-10-01T06:21:00.473Z,19.37
2022-10-01T06:21:34.167Z,19.39
2022-10-01T06:22:08.044Z,19.39
2022-10-01T06:22:43.426Z,19.39
2022-10-01T06:23:16.610Z,19.40
2022-10-01T06:23:50.746Z,19.38
2022-10-01T06:24:23.975Z,19.37
2022-10-01T06:24:57.346Z,19.34
2022-10-01T06:25:31.303Z,19.33
2022-10-01T06:26:06.324Z,19.32
2022-10-01T06:26:39.664Z,19.34
2022-10-01T06:27:13.062Z,19.42
2022-10-01T06:27:53.760Z,19.51
2022-10-01T06:28:28.138Z,19.63
2022-10-01T06:29:03.173Z,19.71
2022-10-01T06:29:36.453Z,19.75
2022-10-01T06:30:10.655Z,19.77
2022-10-01T06:30:44.002Z,19.77
2022-10-01T06:31:18.485Z,19.76
2022-10-01T06:31:52.097Z,19.75
2022-10-01T06:32:25.450Z,19.74
2022-10-01T06:33:03.162Z,19.73
2022-10-01T06:33:37.231Z,19.72
2022-10-01T06:34:10.838Z,19.71
2022-10-01T06:34:43.891Z,19.68
2022-10-01T06:35:18.146Z,19.63
2022-10-01T06:35:52.377Z,19.56
2022-10-01T06:36:25.575Z,19.49
2022-10-01T06:36:58.700Z,19.42
2022-10-01T06:37:32.414Z,19.35
2022-10-01T06:38:06.597Z,19.28
2022-10-01T06:38:39.851Z,19.22
2022-10-01T06:39:12.959Z,19.18
2022-10-01T06:39:46.367Z,19.17
2022-10-01T06:40:19.739Z,19.24
2022-10-01T06:41:01.136Z,19.37
2022-10-01T06:41:34.930Z,19.58
2022-10-01T06:42:08.495Z,19.74
2022-10-01T06:42:48.278Z,19.91
2022-10-01T06:43:22.406Z,20.08
2022-10-01T06:43:55.711Z,20.22
2022-10-01T06:44:29.360Z,20.36
2022-10-01T06:45:02.733Z,20.47
2022-10-01T06:45:43.923Z,20.49
2022-10-01T06:46:17.423Z,20.36
2022-10-01T06:46:50.662Z,20.15
2022-10-01T06:47:24.755Z,19.91
2022-10-01T06:48:03.012Z,19.65
2022-10-01T06:48:36.908Z,19.36
2022-10-01T06:49:10.109Z,19.11
2022-10-01T06:49:47.314Z,18.88
2022-10-01T06:50:21.078Z,18.67
2022-10-01T06:50:56.313Z,18.61
2022-10-01T06:51:48.505Z,18.70
2022-10-01T06:52:40.898Z,18.96
2022-10-01T06:53:18.119Z,19.27
2022-10-01T06:53:52.297Z,19.50
2022-10-01T06:54:28.098Z,19.69
2022-10-01T06:55:02.570Z,19.86
2022-10-01T06:55:37.574Z,20.01
2022-10-01T06:56:10.878Z,20.13
2022-10-01T06:56:44.776Z,20.24
2022-10-01T06:57:18.172Z,20.33
2022-10-01T06:57:56.923Z,20.42
2022-10-01T06:58:30.532Z,20.43
2022-10-01T06:59:04.570Z,20.33
2022-10-01T06:59:37.993Z,20.13
2022-10-01T07:00:12.858Z,19.91
2022-10-01T07:00:47.923Z,19.64
2022-10-01T07:01:22.307Z,19.39
2022-10-01T07:01:56.346Z,19.12
2022-10-01T07:02:30.392Z,18.89
2022-10-01T07:03:11.398Z,18.76
2022-10-01T07:03:44.613Z,18.79
2022-10-01T07:04:17.857Z,18.92
2022-10-01T07:04:51.162Z,19.09
2022-10-01T07:05:25.724Z,19.28
2022-10-01T07:06:04.339Z,19.49
2022-10-01T07:06:37.944Z,19.71
2022-10-01T07:07:11.268Z,19.88
2022-10-01T07:07:48.793Z,20.04
2022-10-01T07:08:22.819Z,20.20
2022-10-01T07:08:56.837Z,20.35
2022-10-01T07:09:30.440Z,20.49
2022-10-01T07:10:06.715Z,20.60
2022-10-01T07:10:41.080Z,20.66
2022-10-01T07:11:14.209Z,20.57
2022-10-01T07:11:47.624Z,20.42
2022-10-01T07:12:20.857Z,20.20
2022-10-01T07:12:54.112Z,19.95
2022-10-01T07:13:27.237Z,19.71
2022-10-01T07:14:01.709Z,19.45
2022-10-01T07:14:34.979Z,19.20
2022-10-01T07:15:09.382Z,18.99
2022-10-01T07:15:43.094Z,18.89
2022-10-01T07:16:16.372Z,18.94
2022-10-01T07:16:49.577Z,19.08
2022-10-01T07:17:23.148Z,19.27
2022-10-01T07:17:56.455Z,19.46
2022-10-01T07:18:29.606Z,19.63
2022-10-01T07:19:03.002Z,19.81
2022-10-01T07:19:36.362Z,19.98
2022-10-01T07:20:09.951Z,20.12
2022-10-01T07:20:43.488Z,20.26
2022-10-01T07:21:16.797Z,20.36
2022-10-01T07:21:50.108Z,20.46
2022-10-01T07:22:24.569Z,20.55
2022-10-01T07:22:59.470Z,20.60
2022-10-01T07:23:32.667Z,20.67
2022-10-01T07:24:06.249Z,20.71
2022-10-01T07:24:39.856Z,20.74
2022-10-01T07:25:14.010Z,20.75
2022-10-01T07:25:47.426Z,20.77
2022-10-01T07:26:20.572Z,20.80
2022-10-01T07:26:56.146Z,20.84
2022-10-01T07:27:29.601Z,20.83
2022-10-01T07:28:05.099Z,20.75
2022-10-01T07:28:39.201Z,20.58
2022-10-01T07:29:12.341Z,20.36
2022-10-01T07:29:45.817Z,20.13
2022-10-01T07:30:19.106Z,19.89
2022-10-01T07:31:07.062Z,19.66
2022-10-01T07:31:40.357Z,19.35
2022-10-01T07:32:13.578Z,19.17
2022-10-01T07:32:46.880Z,19.09
2022-10-01T07:33:21.137Z,19.13
2022-10-01T07:33:58.150Z,19.26
2022-10-01T07:34:31.500Z,19.45
2022-10-01T07:35:06.195Z,19.63
2022-10-01T07:35:39.507Z,19.83
2022-10-01T07:36:13.791Z,20.01
2022-10-01T07:36:49.438Z,20.18
2022-10-01T07:37:23.314Z,20.30
2022-10-01T07:37:56.715Z,20.38
2022-10-01T07:38:30.598Z,20.42
2022-10-01T07:39:04.091Z,20.45
2022-10-01T07:39:37.619Z,20.48
2022-10-01T07:40:11.077Z,20.52
2022-10-01T07:40:44.303Z,20.53
2022-10-01T07:41:18.366Z,20.53
2022-10-01T07:41:52.170Z,20.54
2022-10-01T07:42:26.884Z,20.54
2022-10-01T07:43:00.094Z,20.55
2022-10-01T07:43:35.056Z,20.56
2022-10-01T07:44:08.360Z,20.60